createdAt,value
2017-06-01T00:00:17.868Z,16.30
2017-06-01T00:02:44.804Z,16.40
2017-06-01T00:05:11.757Z,16.40
2017-06-01T00:07:38.716Z,16.40
2017-06-01T00:10:05.644Z,16.40
2017-06-01T00:12:32.629Z,16.40
2017-06-01T00:14:59.560Z,16.40
2017-06-01T00:17:26.475Z,16.40
2017-06-01T00:19:53.420Z,16.40
2017-06-01T00:22:20.350Z,16.40
2017-06-01T00:24:47.266Z,16.40
2017-06-01T00:27:14.204Z,16.40
2017-06-01T00:29:41.135Z,16.40
2017-06-01T00:32:08.092Z,16.40
2017-06-01T00:34:35.045Z,16.40
2017-06-01T00:37:01.955Z,16.40
2017-06-01T00:39:28.899Z,16.40
2017-06-01T00:41:55.809Z,16.50
2017-06-01T00:44:22.715Z,16.40
2017-06-01T00:46:49.656Z,16.40
2017-06-01T00:49:16.573Z,16.40
2017-06-01T00:51:43.508Z,16.50
2017-06-01T00:54:10.435Z,16.50
2017-06-01T00:56:37.352Z,16.40
2017-06-01T00:59:04.329Z,16.40
2017-06-01T01:01:31.266Z,16.40
2017-06-01T01:03:58.184Z,16.40
2017-06-01T01:06:25.188Z,16.40
2017-06-01T01:08:52.110Z,16.40
2017-06-01T01:11:19.030Z,16.40
2017-06-01T01:13:45.981Z,16.30
2017-06-01T01:16:12.900Z,16.30
2017-06-01T01:18:39.887Z,16.30
2017-06-01T01:21:06.804Z,16.20
2017-06-01T01:23:33.759Z,16.20
2017-06-01T01:26:00.708Z,16.30
2017-06-01T01:28:27.636Z,16.20
2017-06-01T01:30:54.590Z,16.10
2017-06-01T01:33:21.585Z,16.20
2017-06-01T01:35:48.539Z,16.10
2017-06-01T01:38:15.492Z,16.10
2017-06-01T01:40:42.488Z,16.10
2017-06-01T01:43:09.442Z,16.10
2017-06-01T01:45:36.396Z,16.10
2017-06-01T01:48:03.392Z,16.20
2017-06-01T01:50:30.338Z,16.20
2017-06-01T01:52:57.292Z,16.20
2017-06-01T01:55:24.265Z,16.20
2017-06-01T01:57:51.255Z,16.20
2017-06-01T02:00:18.211Z,16.20
2017-06-01T02:02:45.160Z,16.20
2017-06-01T02:05:12.160Z,16.20
2017-06-01T02:07:39.117Z,16.20
2017-06-01T02:10:06.080Z,16.20
2017-06-01T02:12:33.060Z,16.20
2017-06-01T02:15:00.008Z,16.20
2017-06-01T02:17:26.971Z,16.20
2017-06-01T02:19:53.968Z,16.20
2017-06-01T02:22:20.921Z,16.20
2017-06-01T02:24:47.883Z,16.10
2017-06-01T02:27:14.885Z,16.00
2017-06-01T02:29:41.844Z,16.10
2017-06-01T02:32:08.828Z,16.00
2017-06-01T02:34:35.788Z,15.90
2017-06-01T02:37:02.743Z,15.90
2017-06-01T02:39:29.733Z,15.90
2017-06-01T02:41:56.711Z,15.90
2017-06-01T02:44:23.668Z,15.90
2017-06-01T02:46:50.649Z,15.80
2017-06-01T02:49:17.613Z,15.80
2017-06-01T02:51:44.576Z,15.80
2017-06-01T02:54:11.560Z,15.80
2017-06-01T02:56:38.533Z,15.70
2017-06-01T02:59:05.512Z,15.60
2017-06-01T03:01:32.508Z,15.60
2017-06-01T03:03:59.476Z,15.50
2017-06-01T03:06:26.427Z,15.50
2017-06-01T03:08:53.409Z,15.40
2017-06-01T03:11:20.365Z,15.20
2017-06-01T03:13:47.356Z,15.00
2017-06-01T03:16:14.323Z,14.90
2017-06-01T03:18:41.329Z,14.80
2017-06-01T03:21:08.288Z,14.80
2017-06-01T03:23:35.238Z,14.80
2017-06-01T03:26:02.261Z,14.70
2017-06-01T03:28:29.220Z,14.70
2017-06-01T03:30:56.179Z,14.70
2017-06-01T03:33:23.185Z,14.70
2017-06-01T03:35:50.182Z,14.60
2017-06-01T03:38:17.150Z,14.60
2017-06-01T03:40:44.148Z,14.60
2017-06-01T03:43:11.108Z,14.60
2017-06-01T03:45:38.049Z,14.60
2017-06-01T03:48:05.052Z,14.60
2017-06-01T03:50:32.024Z,14.70
2017-06-01T03:52:58.994Z,14.70
2017-06-01T03:55:26.000Z,14.70
2017-06-01T03:57:52.960Z,14.50
2017-06-01T04:00:19.916Z,14.20
2017-06-01T04:02:46.914Z,14.00
2017-06-01T04:05:13.923Z,14.20
2017-06-01T04:07:40.876Z,14.00
2017-06-01T04:10:07.868Z,13.70
2017-06-01T04:12:34.864Z,13.60
2017-06-01T04:15:01.837Z,13.50
2017-06-01T04:17:28.792Z,13.50
2017-06-01T04:19:55.781Z,13.70
2017-06-01T04:22:22.749Z,13.80
2017-06-01T04:24:49.696Z,13.90
2017-06-01T04:27:16.695Z,14.00
2017-06-01T04:29:43.656Z,13.80
2017-06-01T04:32:10.603Z,13.60
2017-06-01T04:34:37.523Z,13.70
2017-06-01T04:37:04.503Z,13.60
2017-06-01T04:39:31.450Z,13.70
2017-06-01T04:41:58.399Z,13.80
2017-06-01T04:44:25.363Z,13.70
2017-06-01T04:46:52.329Z,13.80
2017-06-01T04:49:19.317Z,13.80
2017-06-01T04:51:46.296Z,13.80
2017-06-01T04:54:13.248Z,13.80
2017-06-01T04:56:40.230Z,13.90
2017-06-01T04:59:07.179Z,13.80
2017-06-01T05:01:34.142Z,14.00
2017-06-01T05:04:01.139Z,14.00
2017-06-01T05:06:28.070Z,13.90
2017-06-01T05:08:55.009Z,13.80
2017-06-01T05:11:21.940Z,13.90
2017-06-01T05:13:48.852Z,14.10
2017-06-01T05:16:15.840Z,14.10
2017-06-01T05:18:42.752Z,14.30
2017-06-01T05:21:09.692Z,14.30
2017-06-01T05:23:36.636Z,14.30
2017-06-01T05:26:03.985Z,14.50
2017-06-01T05:28:30.906Z,14.40
2017-06-01T05:30:57.856Z,14.60
2017-06-01T05:33:24.807Z,14.40
2017-06-01T05:35:51.721Z,14.40
2017-06-01T05:38:18.669Z,14.60
2017-06-01T05:40:45.604Z,14.90
2017-06-01T05:43:12.570Z,15.10
2017-06-01T05:45:39.507Z,15.20
2017-06-01T05:48:06.456Z,15.30
2017-06-01T05:50:33.387Z,15.40
2017-06-01T05:53:00.348Z,15.40
2017-06-01T05:55:27.272Z,15.50
2017-06-01T05:57:54.184Z,15.50
2017-06-01T06:00:21.222Z,15.40
2017-06-01T06:02:48.059Z,15.20
2017-06-01T06:05:15.013Z,15.20
2017-06-01T06:07:41.928Z,15.20
2017-06-01T06:10:08.849Z,15.40
2017-06-01T06:12:35.842Z,15.60
2017-06-01T06:15:02.772Z,15.60
2017-06-01T06:17:29.708Z,15.60
2017-06-01T06:19:56.680Z,15.80
2017-06-01T06:22:23.599Z,15.90
2017-06-01T06:24:50.511Z,16.00
2017-06-01T06:27:17.459Z,16.10
2017-06-01T06:29:44.385Z,16.20
2017-06-01T06:32:11.300Z,16.20
2017-06-01T06:34:38.265Z,16.30
2017-06-01T06:37:05.183Z,16.40
2017-06-01T06:39:32.107Z,16.60
2017-06-01T06:41:59.060Z,16.80
2017-06-01T06:44:25.981Z,17.00
2017-06-01T06:46:52.915Z,17.00
2017-06-01T06:49:19.865Z,17.10
2017-06-01T06:51:46.784Z,17.30
2017-06-01T06:54:13.696Z,17.60
2017-06-01T06:56:40.666Z,18.10
2017-06-01T06:59:07.590Z,18.60
2017-06-01T07:01:34.531Z,19.30
2017-06-01T07:04:01.495Z,19.70
2017-06-01T07:06:28.425Z,20.10
2017-06-01T07:08:55.344Z,20.60
2017-06-01T07:11:22.306Z,20.90
2017-06-01T07:13:49.233Z,21.40
2017-06-01T07:16:16.176Z,22.00
2017-06-01T07:18:43.088Z,22.40
2017-06-01T07:21:10.018Z,22.70
2017-06-01T07:23:36.956Z,22.90
2017-06-01T07:26:03.864Z,23.20
2017-06-01T07:28:30.783Z,23.50
2017-06-01T07:30:57.724Z,24.00
2017-06-01T07:33:24.662Z,24.30
2017-06-01T07:35:51.609Z,24.60
2017-06-01T07:38:18.526Z,24.60
2017-06-01T07:40:45.444Z,24.80
2017-06-01T07:43:12.396Z,25.00
2017-06-01T07:45:39.348Z,25.70
2017-06-01T07:48:06.267Z,25.90
2017-06-01T07:50:33.189Z,26.20
2017-06-01T07:53:00.136Z,26.40
2017-06-01T07:55:27.127Z,26.50
2017-06-01T07:57:54.081Z,26.80
2017-06-01T08:00:21.008Z,26.90
2017-06-01T08:02:47.945Z,27.20
2017-06-01T08:05:14.873Z,27.70
2017-06-01T08:07:41.845Z,27.80
2017-06-01T08:10:08.865Z,27.90
2017-06-01T08:12:35.792Z,28.20
2017-06-01T08:15:02.782Z,27.40
2017-06-01T08:17:29.712Z,26.20
2017-06-01T08:19:56.642Z,25.40
2017-06-01T08:22:23.575Z,25.20
2017-06-01T08:24:50.564Z,24.80
2017-06-01T08:27:17.499Z,24.80
2017-06-01T08:29:44.432Z,25.40
2017-06-01T08:32:11.364Z,25.40
2017-06-01T08:34:38.349Z,25.10
2017-06-01T08:37:05.328Z,25.20
2017-06-01T08:39:32.261Z,26.00
2017-06-01T08:41:59.231Z,26.30
2017-06-01T08:44:26.164Z,26.70
2017-06-01T08:46:53.104Z,27.00
2017-06-01T08:49:20.055Z,27.90
2017-06-01T08:51:47.010Z,28.60
2017-06-01T08:54:13.932Z,29.00
2017-06-01T08:56:40.889Z,29.40
2017-06-01T08:59:07.802Z,29.40
2017-06-01T09:01:34.755Z,29.20
2017-06-01T09:04:01.689Z,29.60
2017-06-01T09:06:28.633Z,29.70
2017-06-01T09:08:55.592Z,27.30
2017-06-01T09:11:22.540Z,27.70
2017-06-01T09:13:49.451Z,29.10
2017-06-01T09:16:16.369Z,29.30
2017-06-01T09:18:43.344Z,30.10
2017-06-01T09:21:10.257Z,30.60
2017-06-01T09:23:37.189Z,31.20
2017-06-01T09:26:04.200Z,31.30
2017-06-01T09:28:31.129Z,30.70
2017-06-01T09:30:58.107Z,30.30
2017-06-01T09:33:25.051Z,30.30
2017-06-01T09:35:51.974Z,30.40
2017-06-01T09:38:18.927Z,29.50
2017-06-01T09:40:45.883Z,29.40
2017-06-01T09:43:12.817Z,28.60
2017-06-01T09:45:39.736Z,28.40
2017-06-01T09:48:06.689Z,28.20
2017-06-01T09:50:33.600Z,27.90
2017-06-01T09:53:00.516Z,27.30
2017-06-01T09:55:27.491Z,26.70
2017-06-01T09:57:54.440Z,26.50
2017-06-01T10:00:21.376Z,26.20
2017-06-01T10:02:48.320Z,25.90
2017-06-01T10:05:15.283Z,25.90
2017-06-01T10:07:42.209Z,24.70
2017-06-01T10:10:09.148Z,24.80
2017-06-01T10:12:36.108Z,24.80
2017-06-01T10:15:03.090Z,24.60
2017-06-01T10:17:30.033Z,24.90
2017-06-01T10:19:57.014Z,25.00
2017-06-01T10:22:23.953Z,25.10
2017-06-01T10:24:50.896Z,25.00
2017-06-01T10:27:17.861Z,24.60
2017-06-01T10:29:44.787Z,23.30
2017-06-01T10:32:11.713Z,22.90
2017-06-01T10:34:38.664Z,23.30
2017-06-01T10:37:05.592Z,23.70
2017-06-01T10:39:32.513Z,23.70
2017-06-01T10:41:59.483Z,24.50
2017-06-01T10:44:26.403Z,25.00
2017-06-01T10:46:53.333Z,25.40
2017-06-01T10:49:20.281Z,25.10
2017-06-01T10:51:47.265Z,23.40
2017-06-01T10:54:14.225Z,23.10
2017-06-01T10:56:41.156Z,23.30
2017-06-01T10:59:08.096Z,23.00
2017-06-01T11:01:35.048Z,22.80
2017-06-01T11:04:01.988Z,23.70
2017-06-01T11:06:28.920Z,24.10
2017-06-01T11:08:55.889Z,24.80
2017-06-01T11:11:22.808Z,25.70
2017-06-01T11:13:49.749Z,26.00
2017-06-01T11:16:16.744Z,25.90
2017-06-01T11:18:43.693Z,25.90
2017-06-01T11:21:10.675Z,25.50
2017-06-01T11:23:37.608Z,25.10
2017-06-01T11:26:04.533Z,25.00
2017-06-01T11:28:31.476Z,24.40
2017-06-01T11:30:58.404Z,24.30
2017-06-01T11:33:25.323Z,23.90
2017-06-01T11:35:52.282Z,22.30
2017-06-01T11:38:19.195Z,22.10
2017-06-01T11:40:46.106Z,22.70
2017-06-01T11:43:13.084Z,22.40
2017-06-01T11:45:40.200Z,22.20
2017-06-01T11:48:07.127Z,22.40
2017-06-01T11:50:34.052Z,22.20
2017-06-01T11:53:01.052Z,22.50
2017-06-01T11:55:28.031Z,21.80
2017-06-01T11:57:54.948Z,22.40
2017-06-01T12:00:21.864Z,22.30
2017-06-01T12:02:48.807Z,22.20
2017-06-01T12:05:15.726Z,22.60
2017-06-01T12:07:42.639Z,22.00
2017-06-01T12:10:09.575Z,22.10
2017-06-01T12:12:36.516Z,22.50
2017-06-01T12:15:03.452Z,23.00
2017-06-01T12:17:30.419Z,23.40
2017-06-01T12:19:57.351Z,23.50
2017-06-01T12:22:24.260Z,23.40
2017-06-01T12:24:51.346Z,23.50
2017-06-01T12:27:18.285Z,23.60
2017-06-01T12:29:45.236Z,23.80
2017-06-01T12:32:12.180Z,24.10
2017-06-01T12:34:39.106Z,23.90
2017-06-01T12:37:06.072Z,24.40
2017-06-01T12:39:32.991Z,24.60
2017-06-01T12:41:59.924Z,24.60
2017-06-01T12:44:26.864Z,24.60
2017-06-01T12:46:53.814Z,24.70
2017-06-01T12:49:20.809Z,24.80
2017-06-01T12:51:47.748Z,23.80
2017-06-01T12:54:14.672Z,24.20
2017-06-01T12:56:41.648Z,24.70
2017-06-01T12:59:08.611Z,24.80
2017-06-01T13:01:35.532Z,25.00
2017-06-01T13:04:02.447Z,24.90
2017-06-01T13:06:29.616Z,25.10
2017-06-01T13:08:56.544Z,25.20
2017-06-01T13:11:23.497Z,25.20
2017-06-01T13:13:50.419Z,25.20
2017-06-01T13:16:17.332Z,25.40
2017-06-01T13:18:44.288Z,25.20
2017-06-01T13:21:10.520Z,25.20
2017-06-01T13:23:37.439Z,25.00
2017-06-01T13:26:04.359Z,24.90
2017-06-01T13:28:31.320Z,24.60
2017-06-01T13:30:58.238Z,24.60
2017-06-01T13:33:25.156Z,24.50
2017-06-01T13:35:52.137Z,24.50
2017-06-01T13:38:19.100Z,24.30
2017-06-01T13:40:46.104Z,24.20
2017-06-01T13:43:13.024Z,23.70
2017-06-01T13:45:39.936Z,23.80
2017-06-01T13:48:06.907Z,24.00
2017-06-01T13:50:33.820Z,24.10
2017-06-01T13:53:00.733Z,24.10
2017-06-01T13:55:27.704Z,24.30
2017-06-01T13:57:54.634Z,24.20
2017-06-01T14:00:21.561Z,24.30
2017-06-01T14:02:48.511Z,24.40
2017-06-01T14:05:15.432Z,23.80
2017-06-01T14:07:42.406Z,23.00
2017-06-01T14:10:09.357Z,22.90
2017-06-01T14:12:36.300Z,22.50
2017-06-01T14:15:03.261Z,22.80
2017-06-01T14:17:30.218Z,23.20
2017-06-01T14:19:57.197Z,23.50
2017-06-01T14:22:24.138Z,23.60
2017-06-01T14:24:51.046Z,23.70
2017-06-01T14:27:17.993Z,23.80
2017-06-01T14:29:44.923Z,23.70
2017-06-01T14:32:13.322Z,23.70
2017-06-01T14:34:40.286Z,23.80
2017-06-01T14:37:07.234Z,23.80
2017-06-01T14:39:34.200Z,23.90
2017-06-01T14:42:01.108Z,24.00
2017-06-01T14:44:28.053Z,24.00
2017-06-01T14:46:54.991Z,24.10
2017-06-01T14:49:21.923Z,24.20
2017-06-01T14:51:48.892Z,24.20
2017-06-01T14:54:15.808Z,24.20
2017-06-01T14:56:42.732Z,24.20
2017-06-01T14:59:09.680Z,24.40
2017-06-01T15:01:36.613Z,24.50
2017-06-01T15:04:03.545Z,24.50
2017-06-01T15:06:30.496Z,24.30
2017-06-01T15:08:57.416Z,24.30
2017-06-01T15:11:24.364Z,24.30
2017-06-01T15:13:51.314Z,24.30
2017-06-01T15:16:18.256Z,24.20
2017-06-01T15:18:45.184Z,24.20
2017-06-01T15:21:12.124Z,24.20
2017-06-01T15:23:39.061Z,24.30
2017-06-01T15:26:06.052Z,24.30
2017-06-01T15:28:33.014Z,24.30
2017-06-01T15:30:59.932Z,24.40
2017-06-01T15:33:26.935Z,24.30
2017-06-01T15:35:53.904Z,24.30
2017-06-01T15:38:20.825Z,24.30
2017-06-01T15:40:47.038Z,24.30
2017-06-01T15:43:13.981Z,24.30
2017-06-01T15:45:40.924Z,24.30
2017-06-01T15:48:07.880Z,24.20
2017-06-01T15:50:34.798Z,24.10
2017-06-01T15:53:01.726Z,24.20
2017-06-01T15:55:28.729Z,24.20
2017-06-01T15:57:55.652Z,24.20
2017-06-01T16:00:22.573Z,24.30
2017-06-01T16:02:49.527Z,24.30
2017-06-01T16:05:16.485Z,24.20
2017-06-01T16:07:43.409Z,24.10
2017-06-01T16:10:10.344Z,24.00
2017-06-01T16:12:37.293Z,24.00
2017-06-01T16:15:04.224Z,23.80
2017-06-01T16:17:31.145Z,23.90
2017-06-01T16:19:58.133Z,23.90
2017-06-01T16:22:25.059Z,23.60
2017-06-01T16:24:51.991Z,23.60
2017-06-01T16:27:18.951Z,23.80
2017-06-01T16:29:45.855Z,23.80
2017-06-01T16:32:12.796Z,23.90
2017-06-01T16:34:39.738Z,24.10
2017-06-01T16:37:06.724Z,24.10
2017-06-01T16:39:33.658Z,24.00
2017-06-01T16:42:00.597Z,23.90
2017-06-01T16:44:27.565Z,23.80
2017-06-01T16:46:54.484Z,23.90
2017-06-01T16:49:21.397Z,23.90
2017-06-01T16:51:48.363Z,23.80
2017-06-01T16:54:15.291Z,23.70
2017-06-01T16:56:42.222Z,23.40
2017-06-01T16:59:09.176Z,23.40
2017-06-01T17:01:36.105Z,23.60
2017-06-01T17:04:03.042Z,23.60
2017-06-01T17:06:30.001Z,23.60
2017-06-01T17:08:56.936Z,23.60
2017-06-01T17:11:23.956Z,23.60
2017-06-01T17:13:50.880Z,23.60
2017-06-01T17:16:17.816Z,23.60
2017-06-01T17:18:44.765Z,23.70
2017-06-01T17:21:11.720Z,23.70
2017-06-01T17:23:38.662Z,23.70
2017-06-01T17:26:05.699Z,23.50
2017-06-01T17:28:32.629Z,23.40
2017-06-01T17:30:59.563Z,23.40
2017-06-01T17:33:26.905Z,23.30
2017-06-01T17:35:53.827Z,23.30
2017-06-01T17:38:20.862Z,23.30
2017-06-01T17:40:47.805Z,23.20
2017-06-01T17:43:14.719Z,23.20
2017-06-01T17:45:41.677Z,23.10
2017-06-01T17:48:08.620Z,23.10
2017-06-01T17:50:35.562Z,23.00
2017-06-01T17:53:02.508Z,23.00
2017-06-01T17:55:29.425Z,22.90
2017-06-01T17:57:56.344Z,22.80
2017-06-01T18:00:23.303Z,22.80
2017-06-01T18:02:50.262Z,22.50
2017-06-01T18:05:17.416Z,22.30
2017-06-01T18:07:44.468Z,22.30
2017-06-01T18:10:11.387Z,22.40
2017-06-01T18:12:38.349Z,22.40
2017-06-01T18:15:05.287Z,22.50
2017-06-01T18:17:32.251Z,22.40
2017-06-01T18:19:59.176Z,22.40
2017-06-01T18:22:26.100Z,22.20
2017-06-01T18:24:53.079Z,22.20
2017-06-01T18:27:20.001Z,22.20
2017-06-01T18:29:46.928Z,22.20
2017-06-01T18:32:13.896Z,22.20
2017-06-01T18:34:40.835Z,22.30
2017-06-01T18:37:07.799Z,22.20
2017-06-01T18:39:34.749Z,22.30
2017-06-01T18:42:01.688Z,22.20
2017-06-01T18:44:28.669Z,22.20
2017-06-01T18:46:55.601Z,22.10
2017-06-01T18:49:22.537Z,22.10
2017-06-01T18:51:49.550Z,22.00
2017-06-01T18:54:16.467Z,21.90
2017-06-01T18:56:43.554Z,21.90
2017-06-01T18:59:10.480Z,21.70
2017-06-01T19:01:37.432Z,21.70
2017-06-01T19:04:04.401Z,21.70
2017-06-01T19:06:31.328Z,21.70
2017-06-01T19:08:58.285Z,21.70
2017-06-01T19:11:25.255Z,21.70
2017-06-01T19:13:52.222Z,21.60
2017-06-01T19:16:19.173Z,21.50
2017-06-01T19:18:46.147Z,21.20
2017-06-01T19:21:13.104Z,21.30
2017-06-01T19:23:40.056Z,21.10
2017-06-01T19:26:07.024Z,21.10
2017-06-01T19:28:33.977Z,21.10
2017-06-01T19:31:00.922Z,21.10
2017-06-01T19:33:27.888Z,21.10
2017-06-01T19:35:54.830Z,21.00
2017-06-01T19:38:21.769Z,20.80
2017-06-01T19:40:48.729Z,20.50
2017-06-01T19:43:15.666Z,20.60
2017-06-01T19:45:42.655Z,20.70
2017-06-01T19:48:09.637Z,20.80
2017-06-01T19:50:36.548Z,20.80
2017-06-01T19:53:03.524Z,20.80
2017-06-01T19:55:30.472Z,20.80
2017-06-01T19:57:57.417Z,20.90
2017-06-01T20:00:25.143Z,20.90
2017-06-01T20:02:52.097Z,20.90
2017-06-01T20:05:19.030Z,20.90
2017-06-01T20:07:46.022Z,20.90
2017-06-01T20:10:12.957Z,20.90
2017-06-01T20:12:39.912Z,20.80
2017-06-01T20:15:06.896Z,20.70
2017-06-01T20:17:33.850Z,20.70
2017-06-01T20:20:00.772Z,20.70
2017-06-01T20:22:27.724Z,20.70
2017-06-01T20:24:54.657Z,20.70
2017-06-01T20:27:21.613Z,20.50
2017-06-01T20:29:48.548Z,20.30
2017-06-01T20:32:15.492Z,20.20
2017-06-01T20:34:42.721Z,20.20
2017-06-01T20:37:09.686Z,20.10
2017-06-01T20:39:36.609Z,20.20
2017-06-01T20:42:03.551Z,20.20
2017-06-01T20:44:30.473Z,20.30
2017-06-01T20:46:57.395Z,20.30
2017-06-01T20:49:24.360Z,20.30
2017-06-01T20:51:51.304Z,20.30
2017-06-01T20:54:18.533Z,20.20
2017-06-01T20:56:45.444Z,20.10
2017-06-01T20:59:12.394Z,20.00
2017-06-01T21:01:39.305Z,20.00
2017-06-01T21:04:06.317Z,19.90
2017-06-01T21:06:33.280Z,19.80
2017-06-01T21:09:00.195Z,19.80
2017-06-01T21:11:27.111Z,19.80
2017-06-01T21:13:54.056Z,19.80
2017-06-01T21:16:20.991Z,19.80
2017-06-01T21:18:47.934Z,19.70
2017-06-01T21:21:14.868Z,19.60
2017-06-01T21:23:41.797Z,19.50
2017-06-01T21:26:08.815Z,19.50
2017-06-01T21:28:35.734Z,19.40
2017-06-01T21:31:02.635Z,19.30
2017-06-01T21:33:29.600Z,19.20
2017-06-01T21:35:57.332Z,19.10
2017-06-01T21:38:24.272Z,19.10
2017-06-01T21:40:51.233Z,19.10
2017-06-01T21:43:18.147Z,19.00
2017-06-01T21:45:45.060Z,19.10
2017-06-01T21:48:11.992Z,19.10
2017-06-01T21:50:38.944Z,19.10
2017-06-01T21:53:05.855Z,19.00
2017-06-01T21:55:32.819Z,18.20
2017-06-01T21:57:59.720Z,17.90
2017-06-01T22:00:26.628Z,18.00
2017-06-01T22:02:53.568Z,18.10
2017-06-01T22:05:20.496Z,18.20
2017-06-01T22:07:47.433Z,18.50
2017-06-01T22:10:14.453Z,18.50
2017-06-01T22:12:41.365Z,18.40
2017-06-01T22:15:08.272Z,18.30
2017-06-01T22:17:35.200Z,18.10
2017-06-01T22:20:02.206Z,18.10
2017-06-01T22:22:29.117Z,18.10
2017-06-01T22:24:56.056Z,18.10
2017-06-01T22:27:22.993Z,18.10
2017-06-01T22:29:49.911Z,17.90
2017-06-01T22:32:16.889Z,17.90
2017-06-01T22:34:43.868Z,18.00
2017-06-01T22:37:10.821Z,17.90
2017-06-01T22:39:37.737Z,17.70
2017-06-01T22:42:04.680Z,17.70
2017-06-01T22:44:31.666Z,17.70
2017-06-01T22:46:58.600Z,17.80
2017-06-01T22:49:25.552Z,17.70
2017-06-01T22:51:52.493Z,17.50
2017-06-01T22:54:19.411Z,17.40
2017-06-01T22:56:46.316Z,17.20
2017-06-01T22:59:13.265Z,17.20
2017-06-01T23:01:40.167Z,17.30
2017-06-01T23:04:07.084Z,17.20
2017-06-01T23:06:34.021Z,17.20
2017-06-01T23:09:00.944Z,17.20
2017-06-01T23:11:27.871Z,17.20
2017-06-01T23:13:54.821Z,17.30
2017-06-01T23:16:21.723Z,17.20
2017-06-01T23:18:48.831Z,17.20
2017-06-01T23:21:15.757Z,17.20
2017-06-01T23:23:42.686Z,17.20
2017-06-01T23:26:09.651Z,17.20
2017-06-01T23:28:36.577Z,17.10
2017-06-01T23:31:03.483Z,17.10
2017-06-01T23:33:30.425Z,17.00
2017-06-01T23:35:57.380Z,17.00
2017-06-01T23:38:24.292Z,16.80
2017-06-01T23:40:51.236Z,16.90
2017-06-01T23:43:18.156Z,16.90
2017-06-01T23:45:45.071Z,16.70
2017-06-01T23:48:12.012Z,16.70
2017-06-01T23:50:39.001Z,16.70
2017-06-01T23:53:05.908Z,16.60
2017-06-01T23:55:32.832Z,16.60
2017-06-01T23:57:59.783Z,16.60
